Time;durP1;ratioP1;P1;durP2;ratioP2;P2;SDS_P1;SDS_P2;PMS_P1;PMS_P2;Temp;Humidity;BMP_temperature;BMP_pressure;BME280_temperature;BME280_humidity;BME280_pressure;Samples;Min_cycle;Max_cycle;Signal;HPM_P1;HPM_P2
2023/04/20 00:01:36;;;;;;;15.95;7.40;;;4.90;99.90;;;;;;5042668;28;20040;-71
2023/04/20 00:04:02;;;;;;;17.80;7.30;;;4.90;99.90;;;;;;5040589;28;20498;-71
2023/04/20 00:06:29;;;;;;;17.02;8.20;;;4.90;99.90;;;;;;5042460;28;20045;-73
2023/04/20 00:08:54;;;;;;;21.33;7.88;;;5.00;99.90;;;;;;5042804;28;20033;-73
2023/04/20 00:11:20;;;;;;;16.77;8.18;;;4.90;99.90;;;;;;5041682;28;20059;-72
2023/04/20 00:13:45;;;;;;;15.85;8.02;;;4.90;99.90;;;;;;5043420;28;20064;-71
2023/04/20 00:16:11;;;;;;;14.18;7.20;;;4.90;99.90;;;;;;5039982;28;20040;-72
2023/04/20 00:18:36;;;;;;;15.60;7.78;;;5.00;99.90;;;;;;5042209;28;20040;-70
2023/04/20 00:21:02;;;;;;;13.40;7.05;;;5.00;99.90;;;;;;5042261;28;20047;-71
2023/04/20 00:23:28;;;;;;;13.10;6.47;;;5.00;99.90;;;;;;5041248;28;20123;-72
2023/04/20 00:25:54;;;;;;;12.38;6.63;;;5.10;99.90;;;;;;5040574;28;20810;-70
2023/04/20 00:28:19;;;;;;;14.63;7.30;;;5.20;99.90;;;;;;5042719;28;20088;-70
2023/04/20 00:30:45;;;;;;;13.23;6.97;;;5.30;99.90;;;;;;5041700;28;20041;-72
2023/04/20 00:33:10;;;;;;;13.40;6.68;;;5.40;99.90;;;;;;5042765;28;20571;-71
2023/04/20 00:35:36;;;;;;;13.18;6.22;;;5.40;99.90;;;;;;5043895;28;20107;-72
2023/04/20 00:38:01;;;;;;;18.10;7.07;;;5.40;99.90;;;;;;5042273;28;20484;-69
2023/04/20 00:40:27;;;;;;;16.13;6.65;;;5.40;99.90;;;;;;5044892;28;20041;-72
2023/04/20 00:42:52;;;;;;;17.40;6.43;;;5.40;99.90;;;;;;5041295;28;20035;-71
2023/04/20 00:45:20;;;;;;;13.35;6.22;;;5.50;99.90;;;;;;5041372;28;20399;-73
2023/04/20 00:47:46;;;;;;;17.13;6.40;;;5.40;99.90;;;;;;5041928;28;20049;-72
2023/04/20 00:50:12;;;;;;;12.07;6.35;;;5.50;99.90;;;;;;5042537;28;20044;-71
2023/04/20 00:52:39;;;;;;;13.63;6.72;;;5.50;99.90;;;;;;5042576;28;20507;-72
2023/04/20 00:55:05;;;;;;;13.90;6.57;;;5.50;99.90;;;;;;5042582;28;20075;-69
2023/04/20 00:57:31;;;;;;;15.52;6.47;;;5.50;99.90;;;;;;5041875;28;20044;-70
2023/04/20 00:59:56;;;;;;;15.48;6.40;;;5.50;99.90;;;;;;5042452;28;20048;-72
2023/04/20 01:02:22;;;;;;;14.90;6.63;;;5.40;99.90;;;;;;5043203;28;20488;-71
2023/04/20 01:04:47;;;;;;;13.05;5.68;;;5.40;99.90;;;;;;5040412;28;20488;-72
2023/04/20 01:07:13;;;;;;;18.65;7.40;;;5.40;99.90;;;;;;5039508;28;20037;-73
2023/04/20 01:09:39;;;;;;;13.18;6.70;;;5.30;99.90;;;;;;5041384;28;20207;-72
2023/04/20 01:12:06;;;;;;;12.63;6.43;;;5.20;99.90;;;;;;5026069;28;20064;-71
2023/04/20 01:14:31;;;;;;;18.85;7.55;;;5.10;99.90;;;;;;5046705;28;20045;-74
2023/04/20 01:16:57;;;;;;;14.88;6.63;;;5.10;99.90;;;;;;5058262;28;20048;-73
2023/04/20 01:19:23;;;;;;;15.60;6.53;;;5.00;99.90;;;;;;5043911;28;20182;-72
2023/04/20 01:21:49;;;;;;;14.10;6.40;;;5.00;99.90;;;;;;5045137;28;20125;-72
2023/04/20 01:24:14;;;;;;;15.80;6.22;;;5.10;99.90;;;;;;5045145;28;20045;-71
2023/04/20 01:26:40;;;;;;;11.63;6.30;;;5.20;99.90;;;;;;5042058;28;20054;-72
2023/04/20 01:29:06;;;;;;;13.05;5.70;;;5.30;99.90;;;;;;5043576;28;20037;-70
2023/04/20 01:31:31;;;;;;;11.40;5.25;;;5.50;99.90;;;;;;5046561;28;20111;-72
2023/04/20 01:33:57;;;;;;;10.02;5.88;;;5.60;99.90;;;;;;5048142;28;20116;-72
2023/04/20 01:36:22;;;;;;;18.60;6.38;;;5.80;99.90;;;;;;5044784;28;20038;-71
2023/04/20 01:38:50;;;;;;;9.82;5.85;;;5.90;99.90;;;;;;5047307;28;20072;-70
2023/04/20 01:41:15;;;;;;;14.05;5.95;;;6.10;99.90;;;;;;5047169;28;20427;-68
2023/04/20 01:43:41;;;;;;;13.20;5.88;;;6.10;99.90;;;;;;5045630;28;20037;-70
2023/04/20 01:46:07;;;;;;;11.35;4.32;;;6.30;99.90;;;;;;5049034;28;20135;-71
2023/04/20 01:48:33;;;;;;;11.70;5.20;;;6.60;99.90;;;;;;5048581;28;20041;-71
2023/04/20 01:50:58;;;;;;;13.88;5.00;;;6.70;99.90;;;;;;5046920;28;20033;-69
2023/04/20 01:53:24;;;;;;;10.60;4.95;;;6.80;99.90;;;;;;5048273;28;20373;-71
2023/04/20 01:55:50;;;;;;;10.52;5.10;;;6.90;99.90;;;;;;5047796;28;20052;-70
2023/04/20 01:58:15;;;;;;;15.13;5.40;;;6.90;99.90;;;;;;5044232;28;20483;-72
2023/04/20 02:00:41;;;;;;;12.85;4.85;;;7.00;99.90;;;;;;5049064;28;20049;-69
2023/04/20 02:03:06;;;;;;;10.38;4.60;;;7.10;99.90;;;;;;5046461;28;20052;-70
2023/04/20 02:05:32;;;;;;;9.15;4.93;;;7.10;99.90;;;;;;5046007;28;20098;-72
2023/04/20 02:07:57;;;;;;;10.93;5.32;;;7.20;99.90;;;;;;5047480;28;20450;-73
2023/04/20 02:10:23;;;;;;;10.90;4.82;;;7.20;99.90;;;;;;5044648;28;20388;-69
2023/04/20 02:12:49;;;;;;;16.27;5.22;;;7.20;99.90;;;;;;5048171;28;20287;-71
2023/04/20 02:15:15;;;;;;;9.55;4.38;;;7.30;99.90;;;;;;5048832;28;20037;-73
2023/04/20 02:17:41;;;;;;;11.57;4.47;;;7.30;99.90;;;;;;5049465;28;20392;-72
2023/04/20 02:20:10;;;;;;;7.18;3.95;;;7.30;99.90;;;;;;5045487;28;20084;-69
2023/04/20 02:22:36;;;;;;;12.18;4.97;;;7.40;99.90;;;;;;5047329;28;20475;-71
2023/04/20 02:25:03;;;;;;;9.55;4.78;;;7.40;99.90;;;;;;5045837;28;20195;-71
2023/04/20 02:27:30;;;;;;;17.73;4.80;;;7.40;99.90;;;;;;5046555;28;20113;-70
2023/04/20 02:29:56;;;;;;;8.07;4.35;;;7.30;99.90;;;;;;5047317;28;20048;-72
2023/04/20 02:32:21;;;;;;;10.65;4.57;;;7.30;99.90;;;;;;5030565;28;20032;-72
2023/04/20 02:34:47;;;;;;;10.70;4.68;;;7.30;99.90;;;;;;5046465;28;20036;-71
2023/04/20 02:37:13;;;;;;;9.98;4.43;;;7.20;99.90;;;;;;5044967;28;20037;-71
2023/04/20 02:39:38;;;;;;;9.55;4.45;;;7.20;99.90;;;;;;5045441;28;20040;-69
2023/04/20 02:42:04;;;;;;;7.50;4.03;;;7.20;99.90;;;;;;5064172;28;20051;-71
2023/04/20 02:44:30;;;;;;;10.13;4.30;;;7.20;99.90;;;;;;5047753;28;20053;-71
2023/04/20 02:46:56;;;;;;;10.80;4.75;;;7.20;99.90;;;;;;5048382;28;20036;-73
2023/04/20 02:49:21;;;;;;;10.18;4.03;;;7.30;99.90;;;;;;5048716;28;20472;-71
2023/04/20 02:51:47;;;;;;;13.48;4.78;;;7.30;99.90;;;;;;5045433;28;20041;-73
2023/04/20 02:54:12;;;;;;;11.80;4.57;;;7.30;99.90;;;;;;5028572;28;20064;-72
2023/04/20 02:56:38;;;;;;;10.35;4.45;;;7.40;99.90;;;;;;5047205;28;20044;-71
2023/04/20 02:59:03;;;;;;;10.18;4.43;;;7.40;99.90;;;;;;5045692;28;20048;-70
2023/04/20 03:01:29;;;;;;;9.55;4.22;;;7.30;99.90;;;;;;5048534;28;20048;-69
2023/04/20 03:03:54;;;;;;;12.70;4.40;;;7.30;99.90;;;;;;5046479;28;20152;-69
2023/04/20 03:06:20;;;;;;;14.10;4.68;;;7.30;99.90;;;;;;5047589;28;20400;-73
2023/04/20 03:08:46;;;;;;;9.48;3.97;;;7.20;99.90;;;;;;5046361;28;20479;-67
2023/04/20 03:11:11;;;;;;;8.82;4.07;;;7.30;99.90;;;;;;5047553;28;20498;-68
2023/04/20 03:13:37;;;;;;;14.75;4.68;;;7.20;99.90;;;;;;5046601;28;20040;-68
2023/04/20 03:16:04;;;;;;;10.40;4.78;;;7.20;99.90;;;;;;5047066;28;20499;-69
2023/04/20 03:18:30;;;;;;;7.75;4.22;;;7.20;99.90;;;;;;5040463;28;20060;-69
2023/04/20 03:20:55;;;;;;;8.13;3.72;;;7.30;99.90;;;;;;5043719;28;20032;-73
2023/04/20 03:23:25;;;;;;;10.27;3.65;;;7.30;99.90;;;;;;5044749;28;20073;-68
2023/04/20 03:25:50;;;;;;;6.40;3.65;;;7.30;99.90;;;;;;5043236;28;20040;-68
2023/04/20 03:28:16;;;;;;;6.75;3.58;;;7.40;99.90;;;;;;5043032;28;20033;-70
2023/04/20 03:30:41;;;;;;;9.90;4.15;;;7.50;99.90;;;;;;5060301;28;20036;-71
2023/04/20 03:33:07;;;;;;;10.90;3.95;;;7.60;99.90;;;;;;5044447;28;20041;-73
2023/04/20 03:35:32;;;;;;;8.07;3.33;;;7.50;99.90;;;;;;5044622;28;20044;-68
2023/04/20 03:37:58;;;;;;;10.05;4.10;;;7.60;99.90;;;;;;5043167;28;20048;-68
2023/04/20 03:40:24;;;;;;;8.85;3.92;;;7.70;99.90;;;;;;5045520;28;20510;-71
2023/04/20 03:42:49;;;;;;;13.50;4.20;;;7.70;99.90;;;;;;5044112;28;20067;-73
2023/04/20 03:45:16;;;;;;;9.48;4.78;;;7.70;99.90;;;;;;5043652;28;20083;-72
2023/04/20 03:47:41;;;;;;;7.63;4.00;;;7.70;99.90;;;;;;5044012;28;20045;-72
2023/04/20 03:50:07;;;;;;;13.75;4.50;;;7.70;99.90;;;;;;5043039;28;20048;-71
2023/04/20 03:52:33;;;;;;;11.27;4.38;;;7.70;99.90;;;;;;5043102;28;20480;-71
2023/04/20 03:54:59;;;;;;;12.23;3.38;;;7.70;99.90;;;;;;5041244;28;20162;-70
2023/04/20 03:57:24;;;;;;;9.90;4.15;;;7.70;99.90;;;;;;5043131;28;20476;-71
2023/04/20 03:59:50;;;;;;;9.40;4.13;;;7.70;99.90;;;;;;5043175;28;20045;-72
2023/04/20 04:02:15;;;;;;;8.48;3.88;;;7.80;99.90;;;;;;5039602;28;20393;-71
2023/04/20 04:04:41;;;;;;;9.20;4.00;;;7.70;99.90;;;;;;5043234;28;20041;-68
2023/04/20 04:07:06;;;;;;;8.45;3.53;;;7.80;99.90;;;;;;5043323;28;20045;-70
2023/04/20 04:09:32;;;;;;;7.25;4.22;;;7.80;99.90;;;;;;5040502;28;20041;-72
2023/04/20 04:11:57;;;;;;;11.73;3.92;;;7.80;99.90;;;;;;5042953;28;20082;-71
2023/04/20 04:14:23;;;;;;;10.40;4.10;;;7.90;99.90;;;;;;5042210;28;20575;-72
2023/04/20 04:16:49;;;;;;;9.23;4.30;;;7.90;99.90;;;;;;5040766;28;20089;-74
2023/04/20 04:19:14;;;;;;;13.93;4.50;;;7.90;99.90;;;;;;5042981;28;20108;-71
2023/04/20 04:21:40;;;;;;;10.80;4.90;;;7.90;99.90;;;;;;5043346;28;20048;-75
2023/04/20 04:24:06;;;;;;;11.07;4.45;;;7.90;99.90;;;;;;5042398;28;20049;-68
2023/04/20 04:26:32;;;;;;;9.07;3.50;;;7.80;99.90;;;;;;5044418;28;20044;-73
2023/04/20 04:28:58;;;;;;;14.50;4.78;;;7.90;99.90;;;;;;5039816;28;20095;-71
2023/04/20 04:31:24;;;;;;;16.20;4.53;;;7.80;99.90;;;;;;5059589;28;20049;-72
2023/04/20 04:33:50;;;;;;;12.43;4.93;;;7.80;99.90;;;;;;5039915;28;20052;-71
2023/04/20 04:36:16;;;;;;;12.00;5.18;;;7.70;99.90;;;;;;5041545;28;20487;-70
2023/04/20 04:38:43;;;;;;;20.05;4.53;;;7.70;99.90;;;;;;5041838;28;20041;-70
2023/04/20 04:41:10;;;;;;;8.30;4.60;;;7.60;99.90;;;;;;5043491;28;20492;-74
2023/04/20 04:43:38;;;;;;;11.15;4.70;;;7.60;99.90;;;;;;5044972;28;20069;-70
2023/04/20 04:46:11;;;;;;;11.48;4.75;;;7.50;99.90;;;;;;5042737;28;20396;-68
2023/04/20 04:48:39;;;;;;;10.38;4.18;;;7.40;99.90;;;;;;5038594;28;20082;-73
2023/04/20 04:51:05;;;;;;;9.68;4.57;;;7.40;99.90;;;;;;5040946;28;20048;-70
2023/04/20 04:53:31;;;;;;;13.50;5.30;;;7.30;99.90;;;;;;5042706;28;20037;-73
2023/04/20 04:55:56;;;;;;;9.85;5.20;;;7.20;99.90;;;;;;5043793;28;20045;-70
2023/04/20 04:58:22;;;;;;;9.90;5.28;;;7.00;99.90;;;;;;5038758;28;20535;-74
2023/04/20 05:00:47;;;;;;;14.05;5.72;;;6.90;99.90;;;;;;5043273;28;20047;-73
2023/04/20 05:03:13;;;;;;;14.40;5.63;;;6.90;99.90;;;;;;5042585;28;20131;-74
2023/04/20 05:05:38;;;;;;;10.15;5.18;;;6.90;99.90;;;;;;5041331;28;20045;-70
2023/04/20 05:08:04;;;;;;;12.05;5.60;;;6.80;99.90;;;;;;5044752;28;20492;-69
2023/04/20 05:10:30;;;;;;;13.85;5.18;;;6.80;99.90;;;;;;5041850;28;20053;-70
2023/04/20 05:12:57;;;;;;;13.55;5.40;;;6.80;99.90;;;;;;5025178;28;20124;-70
2023/04/20 05:15:23;;;;;;;12.50;5.35;;;6.80;99.90;;;;;;5042770;28;20055;-68
2023/04/20 05:17:49;;;;;;;12.82;5.40;;;6.80;99.90;;;;;;5041735;28;20064;-70
2023/04/20 05:20:14;;;;;;;11.00;5.30;;;6.80;99.90;;;;;;5041252;28;20065;-72
2023/04/20 05:22:40;;;;;;;14.15;5.50;;;6.80;99.90;;;;;;5042875;28;20557;-71
2023/04/20 05:25:06;;;;;;;9.10;5.20;;;6.90;99.90;;;;;;5043074;28;20080;-69
2023/04/20 05:27:32;;;;;;;11.18;5.25;;;6.90;99.90;;;;;;5043709;28;20380;-73
2023/04/20 05:29:58;;;;;;;13.32;5.53;;;7.00;99.90;;;;;;5039770;28;20045;-71
2023/04/20 05:32:24;;;;;;;12.98;5.20;;;7.00;99.90;;;;;;5043395;28;20056;-71
2023/04/20 05:34:49;;;;;;;13.52;5.50;;;7.00;99.90;;;;;;5043945;28;20151;-72
2023/04/20 05:37:15;;;;;;;12.80;5.18;;;7.00;99.90;;;;;;5042563;28;20127;-71
2023/04/20 05:39:41;;;;;;;13.73;5.57;;;7.00;99.90;;;;;;5043960;28;20048;-71
2023/04/20 05:42:07;;;;;;;11.38;5.15;;;7.10;99.90;;;;;;5042618;28;20029;-72
2023/04/20 05:44:35;;;;;;;12.65;4.90;;;7.10;99.90;;;;;;5044122;28;20099;-70
2023/04/20 05:47:05;;;;;;;11.57;4.47;;;7.00;99.90;;;;;;5043083;28;20110;-70
2023/04/20 05:49:31;;;;;;;12.50;5.03;;;7.00;99.90;;;;;;5060025;28;20476;-72
2023/04/20 05:51:57;;;;;;;12.32;4.97;;;7.00;99.90;;;;;;5045009;28;20393;-73
2023/04/20 05:54:22;;;;;;;8.80;4.88;;;7.00;99.90;;;;;;5046011;28;20039;-68
2023/04/20 05:56:48;;;;;;;9.65;4.63;;;7.00;99.90;;;;;;5044791;28;20076;-73
2023/04/20 05:59:14;;;;;;;12.10;5.20;;;7.00;99.90;;;;;;5044283;28;20044;-72
2023/04/20 06:01:39;;;;;;;13.00;5.22;;;7.00;99.90;;;;;;5047343;28;20041;-73
2023/04/20 06:04:05;;;;;;;13.10;4.97;;;7.00;99.90;;;;;;5048407;28;20485;-70
2023/04/20 06:06:31;;;;;;;14.50;6.45;;;7.00;99.90;;;;;;5047027;28;20041;-73
2023/04/20 06:08:57;;;;;;;12.90;5.15;;;7.00;99.90;;;;;;5047442;28;20041;-74
2023/04/20 06:11:22;;;;;;;14.75;5.47;;;7.00;99.90;;;;;;5044680;28;20036;-71
2023/04/20 06:13:48;;;;;;;12.25;5.35;;;7.00;99.90;;;;;;5046606;28;20041;-74
2023/04/20 06:16:13;;;;;;;10.23;4.68;;;7.00;99.90;;;;;;5045338;28;20477;-69
2023/04/20 06:18:39;;;;;;;10.45;5.10;;;7.00;99.90;;;;;;5048144;28;20484;-73
2023/04/20 06:21:05;;;;;;;10.23;5.03;;;7.00;99.90;;;;;;5049184;28;20488;-71
2023/04/20 06:23:30;;;;;;;10.30;4.47;;;7.00;99.90;;;;;;5046665;28;20094;-71
2023/04/20 06:25:56;;;;;;;13.32;4.93;;;7.00;99.90;;;;;;5047503;28;20037;-72
2023/04/20 06:28:21;;;;;;;14.80;5.40;;;6.90;99.90;;;;;;5047406;28;20252;-75
2023/04/20 06:30:47;;;;;;;11.48;5.32;;;6.90;99.90;;;;;;5048460;28;20033;-73
2023/04/20 06:33:15;;;;;;;14.40;5.43;;;6.90;99.90;;;;;;5047291;28;20075;-73
2023/04/20 06:35:42;;;;;;;13.07;5.85;;;6.80;99.90;;;;;;5047981;28;20045;-74
2023/04/20 06:38:07;;;;;;;9.75;5.38;;;6.80;99.90;;;;;;5050507;28;20052;-74
2023/04/20 06:40:33;;;;;;;12.65;5.10;;;6.70;99.90;;;;;;5047468;28;20044;-71
2023/04/20 06:42:58;;;;;;;13.65;5.85;;;6.70;99.90;;;;;;5049104;28;20136;-73
2023/04/20 06:45:24;;;;;;;13.40;5.82;;;6.70;99.90;;;;;;5047567;28;20040;-68
2023/04/20 06:47:49;;;;;;;14.27;5.95;;;6.60;99.90;;;;;;5048377;28;20049;-75
2023/04/20 06:50:15;;;;;;;11.05;5.63;;;6.50;99.90;;;;;;5048102;28;20127;-69
2023/04/20 06:52:41;;;;;;;12.57;6.13;;;6.30;99.90;;;;;;5046956;28;20033;-71
2023/04/20 06:55:07;;;;;;;14.55;5.95;;;6.20;99.90;;;;;;5045767;28;20045;-71
2023/04/20 06:57:33;;;;;;;12.50;6.50;;;6.20;99.90;;;;;;5045694;28;20131;-72
2023/04/20 06:59:58;;;;;;;15.40;6.18;;;6.10;99.90;;;;;;5044937;28;20124;-73
2023/04/20 07:02:24;;;;;;;12.68;6.40;;;6.00;99.90;;;;;;5047542;28;20044;-71
2023/04/20 07:04:50;;;;;;;13.98;6.38;;;6.00;99.90;;;;;;5045999;28;20106;-73
2023/04/20 07:07:15;;;;;;;15.05;6.95;;;6.00;99.90;;;;;;5045918;28;20041;-70
2023/04/20 07:09:41;;;;;;;14.18;6.05;;;5.90;99.90;;;;;;5045463;28;20488;-74
2023/04/20 07:12:07;;;;;;;12.65;6.20;;;5.90;99.90;;;;;;5043978;28;20029;-73
2023/04/20 07:14:32;;;;;;;18.92;6.80;;;5.90;99.90;;;;;;5044179;28;20033;-71
2023/04/20 07:16:58;;;;;;;12.85;6.60;;;5.90;99.90;;;;;;5046128;28;20048;-74
2023/04/20 07:19:24;;;;;;;14.20;6.25;;;5.90;99.90;;;;;;5043940;28;20048;-70
2023/04/20 07:21:49;;;;;;;16.08;6.78;;;5.90;99.90;;;;;;5045541;28;20052;-71
2023/04/20 07:24:15;;;;;;;12.60;6.38;;;5.90;99.90;;;;;;5045127;28;20045;-73
2023/04/20 07:26:40;;;;;;;16.30;6.70;;;5.90;99.90;;;;;;5046728;28;20500;-71
2023/04/20 07:29:06;;;;;;;14.82;6.70;;;5.80;99.90;;;;;;5053391;28;20535;-68
2023/04/20 07:31:31;;;;;;;15.25;6.53;;;5.80;99.90;;;;;;5050888;28;20033;-70
2023/04/20 07:33:57;;;;;;;19.23;6.40;;;5.90;99.90;;;;;;5047283;28;20072;-68
2023/04/20 07:36:22;;;;;;;14.63;6.78;;;5.90;99.90;;;;;;5054994;28;20028;-69
2023/04/20 07:38:48;;;;;;;16.70;6.95;;;5.90;99.90;;;;;;5053582;28;20059;-70
2023/04/20 07:41:14;;;;;;;14.88;6.97;;;6.10;99.90;;;;;;5046768;28;20186;-68
2023/04/20 07:43:40;;;;;;;17.48;7.60;;;6.20;99.90;;;;;;5050138;28;20163;-69
2023/04/20 07:46:06;;;;;;;17.55;7.68;;;6.30;99.90;;;;;;5055070;28;20068;-70
2023/04/20 07:48:35;;;;;;;17.17;7.00;;;6.40;99.90;;;;;;5063894;28;20063;-70
2023/04/20 07:51:01;;;;;;;14.43;7.05;;;6.50;99.90;;;;;;5065406;28;20036;-70
2023/04/20 07:53:28;;;;;;;15.82;7.00;;;6.50;99.90;;;;;;5070088;28;20047;-71
2023/04/20 07:55:54;;;;;;;16.58;7.10;;;6.60;99.90;;;;;;5058197;28;20036;-70
2023/04/20 07:58:20;;;;;;;16.50;7.22;;;6.70;99.90;;;;;;5050199;28;20604;-70
2023/04/20 08:00:46;;;;;;;14.32;7.25;;;6.70;99.90;;;;;;5062639;28;20391;-70
2023/04/20 08:03:12;;;;;;;15.63;7.85;;;6.80;99.90;;;;;;5049461;28;20391;-76
2023/04/20 08:05:39;;;;;;;17.85;7.25;;;6.90;99.90;;;;;;5040394;28;20532;-73
2023/04/20 08:08:05;;;;;;;13.93;7.05;;;6.90;99.90;;;;;;5030280;28;20041;-70
2023/04/20 08:10:31;;;;;;;16.10;6.80;;;6.90;99.90;;;;;;5049026;28;20044;-72
2023/04/20 08:12:57;;;;;;;15.40;6.13;;;6.90;99.90;;;;;;5048620;28;20037;-72
2023/04/20 08:15:23;;;;;;;14.10;7.18;;;7.00;99.90;;;;;;5059978;28;20071;-74
2023/04/20 08:17:48;;;;;;;17.42;8.10;;;7.10;99.90;;;;;;5051080;28;20048;-72
2023/04/20 08:20:14;;;;;;;18.23;7.85;;;7.10;99.90;;;;;;5051598;28;20043;-71
2023/04/20 08:22:39;;;;;;;15.43;7.50;;;7.30;99.90;;;;;;5049569;28;20047;-70
2023/04/20 08:25:05;;;;;;;21.77;8.38;;;7.40;99.90;;;;;;5055368;28;20041;-74
2023/04/20 08:27:31;;;;;;;15.13;7.30;;;7.60;99.90;;;;;;5048447;28;20124;-75
2023/04/20 08:29:57;;;;;;;23.83;9.07;;;7.80;99.90;;;;;;5053337;28;20037;-71
2023/04/20 08:32:25;;;;;;;18.92;8.35;;;8.00;99.90;;;;;;5069725;28;20533;-72
2023/04/20 08:34:51;;;;;;;22.15;8.80;;;8.00;99.90;;;;;;5053441;28;20033;-72
2023/04/20 08:37:17;;;;;;;19.42;7.90;;;8.10;99.90;;;;;;5069535;28;20076;-75
2023/04/20 08:39:42;;;;;;;17.50;7.80;;;8.10;99.90;;;;;;5067089;28;20067;-71
2023/04/20 08:42:08;;;;;;;17.83;8.15;;;8.10;99.90;;;;;;5059584;28;20058;-73
2023/04/20 08:44:33;;;;;;;17.30;8.57;;;8.00;99.90;;;;;;5048756;28;20472;-73
2023/04/20 08:46:59;;;;;;;15.82;8.32;;;8.10;99.90;;;;;;5067427;28;20093;-74
2023/04/20 08:49:28;;;;;;;22.65;9.00;;;8.10;99.90;;;;;;5066033;28;20545;-72
2023/04/20 08:51:54;;;;;;;18.98;8.32;;;8.20;99.90;;;;;;5049767;28;20047;-71
2023/04/20 08:54:19;;;;;;;22.50;8.50;;;8.20;99.90;;;;;;5047414;28;20036;-71
2023/04/20 08:56:46;;;;;;;20.90;9.07;;;8.20;99.90;;;;;;5067833;28;20394;-72
2023/04/20 08:59:13;;;;;;;20.25;9.27;;;8.20;99.90;;;;;;5061674;28;20422;-72
2023/04/20 09:01:42;;;;;;;28.95;9.77;;;8.20;99.90;;;;;;5067256;28;20637;-73
2023/04/20 09:04:22;;;;;;;21.00;9.35;;;8.20;99.90;;;;;;5061678;28;20436;-73
2023/04/20 09:06:52;;;;;;;20.52;9.32;;;8.10;99.90;;;;;;5066298;28;20047;-75
2023/04/20 09:09:18;;;;;;;19.10;9.57;;;8.10;99.90;;;;;;5045217;28;20128;-72
2023/04/20 09:11:45;;;;;;;20.75;9.02;;;8.10;99.90;;;;;;5048169;28;20047;-73
2023/04/20 09:14:13;;;;;;;21.08;9.68;;;8.10;99.90;;;;;;5052847;28;20041;-72
2023/04/20 09:17:01;;;;;;;20.23;9.45;;;8.00;99.90;;;;;;5045034;28;20041;-75
2023/04/20 09:19:30;;;;;;;23.27;10.23;;;8.10;99.90;;;;;;5048267;28;20040;-74
2023/04/20 09:21:58;;;;;;;18.65;9.35;;;8.10;99.90;;;;;;5037978;28;20101;-75
2023/04/20 09:24:32;;;;;;;20.98;10.43;;;8.10;99.90;;;;;;5035110;28;20373;-72
2023/04/20 09:27:00;;;;;;;21.25;10.60;;;8.20;99.90;;;;;;5029005;28;20037;-71
2023/04/20 09:29:25;;;;;;;19.95;9.93;;;8.20;99.90;;;;;;5028957;28;20470;-73
2023/04/20 09:31:51;;;;;;;21.27;10.30;;;8.30;99.90;;;;;;5054754;28;20083;-70
2023/04/20 09:34:18;;;;;;;21.80;10.43;;;8.40;99.90;;;;;;5048115;28;20053;-73
2023/04/20 09:36:53;;;;;;;22.50;9.75;;;8.40;99.90;;;;;;5070265;28;20072;-70
2023/04/20 09:39:21;;;;;;;18.60;9.77;;;8.50;99.90;;;;;;5063484;28;20091;-73
2023/04/20 09:41:47;;;;;;;20.92;10.48;;;8.50;99.90;;;;;;5051051;28;20446;-73
2023/04/20 09:44:15;;;;;;;23.77;10.80;;;8.70;99.90;;;;;;5073343;28;20037;-72
2023/04/20 09:46:42;;;;;;;22.08;9.85;;;8.70;99.90;;;;;;5051967;28;20423;-68
2023/04/20 09:49:12;;;;;;;22.83;10.48;;;8.80;99.90;;;;;;5057354;28;20116;-73
2023/04/20 09:51:46;;;;;;;24.40;11.15;;;8.90;99.90;;;;;;5061610;28;20357;-71
2023/04/20 09:54:13;;;;;;;26.05;11.18;;;8.90;99.90;;;;;;5053464;28;20119;-74
2023/04/20 09:56:40;;;;;;;21.83;11.05;;;9.00;99.90;;;;;;5050907;28;20033;-69
2023/04/20 09:59:06;;;;;;;25.80;11.73;;;9.00;99.90;;;;;;5044240;28;20052;-73
2023/04/20 10:01:34;;;;;;;22.20;11.48;;;9.10;99.90;;;;;;5068168;28;20052;-72
2023/04/20 10:04:02;;;;;;;23.00;11.18;;;9.20;99.90;;;;;;5059852;28;20055;-71
2023/04/20 10:06:30;;;;;;;27.33;12.18;;;9.40;99.90;;;;;;5051250;28;20044;-74
2023/04/20 10:08:57;;;;;;;22.30;11.65;;;9.60;99.90;;;;;;5051706;28;20190;-73
2023/04/20 10:11:37;;;;;;;19.70;11.20;;;9.60;99.90;;;;;;5054442;28;20029;-71
2023/04/20 10:14:20;;;;;;;26.30;11.90;;;9.60;99.90;;;;;;5050913;28;20182;-72
2023/04/20 10:16:56;;;;;;;;;;;9.50;99.90;;;;;;5050172;28;20041;-72
2023/04/20 10:19:22;;;;;;;23.98;12.68;;;9.30;99.90;;;;;;5065002;28;19923;-70
2023/04/20 10:21:49;;;;;;;26.85;12.73;;;9.20;99.90;;;;;;5058170;28;20048;-74
2023/04/20 10:24:27;;;;;;;28.58;12.60;;;9.30;99.90;;;;;;5065975;28;20441;-70
2023/04/20 10:26:53;;;;;;;22.77;11.73;;;9.50;99.90;;;;;;5054485;28;20113;-73
2023/04/20 10:29:24;;;;;;;28.42;12.88;;;9.70;99.90;;;;;;5055844;28;20539;-73
2023/04/20 10:31:50;;;;;;;22.50;12.65;;;9.80;99.90;;;;;;5065741;28;20146;-70
2023/04/20 10:34:16;;;;;;;28.95;12.85;;;9.80;99.90;;;;;;5050546;28;20052;-72
2023/04/20 10:36:41;;;;;;;26.42;12.77;;;9.80;99.90;;;;;;5050099;28;20049;-70
2023/04/20 10:39:18;;;;;;;26.42;14.07;;;9.80;99.90;;;;;;5048950;28;20052;-69
2023/04/20 10:41:57;;;;;;;27.38;13.52;;;9.80;99.90;;;;;;5050655;28;20068;-74
2023/04/20 10:44:25;;;;;;;26.48;13.48;;;9.90;99.90;;;;;;5033670;28;20037;-76
2023/04/20 10:46:51;;;;;;;27.10;13.95;;;9.90;99.90;;;;;;5067397;28;20044;-74
2023/04/20 10:49:17;;;;;;;28.77;13.35;;;9.90;99.90;;;;;;5065570;28;20041;-71
2023/04/20 10:51:50;;;;;;;26.50;13.90;;;9.90;99.90;;;;;;5059986;28;20068;-74
2023/04/20 10:54:16;;;;;;;25.73;14.85;;;9.90;99.90;;;;;;5053057;28;20041;-73
2023/04/20 10:56:42;;;;;;;31.92;15.00;;;10.00;99.90;;;;;;5053769;28;20523;-72
2023/04/20 10:59:10;;;;;;;26.45;14.93;;;10.00;99.90;;;;;;5051907;28;20226;-71
2023/04/20 11:01:36;;;;;;;36.95;15.82;;;10.00;99.90;;;;;;5068319;28;20044;-74
2023/04/20 11:04:03;;;;;;;28.02;14.45;;;10.00;99.90;;;;;;5056159;28;20036;-74
2023/04/20 11:06:29;;;;;;;29.42;14.55;;;9.90;99.90;;;;;;5051011;28;20033;-70
2023/04/20 11:08:55;;;;;;;28.77;14.70;;;10.00;99.90;;;;;;5048924;28;20052;-71
2023/04/20 11:11:26;;;;;;;32.72;15.32;;;10.00;99.90;;;;;;5052227;28;20381;-71
2023/04/20 11:14:07;;;;;;;27.80;15.43;;;10.30;99.90;;;;;;5060934;28;20045;-75
2023/04/20 11:16:33;;;;;;;32.55;16.15;;;10.40;99.90;;;;;;5049700;28;20427;-70
2023/04/20 11:18:59;;;;;;;30.80;16.55;;;10.50;99.90;;;;;;5046763;28;20041;-73
2023/04/20 11:21:38;;;;;;;33.33;16.27;;;10.50;99.90;;;;;;5049790;28;20369;-75
2023/04/20 11:24:25;;;;;;;27.10;14.57;;;10.60;99.90;;;;;;5046508;28;20547;-70
2023/04/20 11:26:56;;;;;;;28.90;15.70;;;10.60;99.90;;;;;;5060532;28;20037;-67
2023/04/20 11:29:36;;;;;;;32.90;15.30;;;10.50;99.90;;;;;;5070808;28;20044;-74
2023/04/20 11:32:10;;;;;;;31.52;16.98;;;10.60;99.90;;;;;;5068802;28;20037;-73
2023/04/20 11:34:37;;;;;;;28.50;15.73;;;10.80;99.90;;;;;;5060741;28;20044;-74
2023/04/20 11:37:05;;;;;;;28.85;15.48;;;11.10;99.90;;;;;;5064213;28;20048;-72
2023/04/20 11:39:31;;;;;;;29.42;14.95;;;11.30;99.90;;;;;;5061908;28;20083;-73
2023/04/20 11:41:56;;;;;;;27.60;15.82;;;11.40;99.90;;;;;;5048656;28;20079;-75
2023/04/20 11:44:23;;;;;;;30.17;15.18;;;11.30;99.90;;;;;;5051105;28;20048;-69
2023/04/20 11:46:49;;;;;;;30.08;15.27;;;11.10;99.90;;;;;;5049097;28;20171;-74
2023/04/20 11:49:18;;;;;;;30.67;15.40;;;10.90;99.90;;;;;;5049806;28;20131;-73
2023/04/20 11:51:45;;;;;;;31.17;16.65;;;10.70;99.90;;;;;;5063359;28;20036;-73
2023/04/20 11:54:11;;;;;;;32.22;16.42;;;10.80;99.90;;;;;;5070807;28;20506;-72
2023/04/20 11:56:37;;;;;;;34.95;17.13;;;10.70;99.90;;;;;;5063517;28;20056;-69
2023/04/20 11:59:03;;;;;;;34.60;17.48;;;10.70;99.90;;;;;;5049808;28;20037;-74
2023/04/20 12:01:29;;;;;;;32.47;17.23;;;10.60;99.90;;;;;;5059181;28;20039;-70
2023/04/20 12:03:55;;;;;;;30.73;15.55;;;10.80;99.90;;;;;;5071586;28;20044;-73
2023/04/20 12:06:21;;;;;;;34.65;17.63;;;10.80;99.90;;;;;;5067845;28;20059;-72
2023/04/20 12:08:47;;;;;;;32.05;17.40;;;10.80;99.90;;;;;;5069814;28;20040;-75
2023/04/20 12:11:15;;;;;;;31.90;15.00;;;10.80;99.90;;;;;;5060286;28;20039;-70
2023/04/20 12:13:41;;;;;;;29.80;16.35;;;10.90;99.90;;;;;;5058942;28;20040;-73
2023/04/20 12:16:07;;;;;;;30.90;16.02;;;10.90;99.90;;;;;;5049720;28;20033;-69
2023/04/20 12:18:33;;;;;;;29.63;15.07;;;10.80;99.90;;;;;;5047022;28;20047;-70
2023/04/20 12:20:59;;;;;;;35.10;17.17;;;10.80;99.90;;;;;;5053587;28;20535;-71
2023/04/20 12:23:25;;;;;;;31.77;16.83;;;10.80;99.90;;;;;;5066661;28;20036;-74
2023/04/20 12:25:51;;;;;;;33.00;17.35;;;11.00;99.90;;;;;;5064788;28;20383;-70
2023/04/20 12:28:16;;;;;;;34.88;17.42;;;11.10;99.90;;;;;;5060667;28;20044;-70
2023/04/20 12:30:42;;;;;;;35.88;18.67;;;11.50;99.90;;;;;;5048253;28;20089;-69
2023/04/20 12:33:07;;;;;;;37.47;18.67;;;11.70;99.90;;;;;;5049931;28;20090;-68
2023/04/20 12:35:33;;;;;;;30.50;17.00;;;11.80;99.90;;;;;;5050018;28;20051;-72
2023/04/20 12:37:58;;;;;;;36.28;18.10;;;11.90;99.90;;;;;;5065926;28;20544;-73
2023/04/20 12:40:24;;;;;;;33.47;18.05;;;11.80;99.90;;;;;;5066235;28;20719;-71
2023/04/20 12:42:50;;;;;;;34.05;17.48;;;11.50;99.90;;;;;;5063478;28;20067;-68